Time;durP1;ratioP1;P1;durP2;ratioP2;P2;SDS_P1;SDS_P2;PMS_P1;PMS_P2;Temp;Humidity;BMP_temperature;BMP_pressure;BME280_temperature;BME280_humidity;BME280_pressure;Samples;Min_cycle;Max_cycle;Signal;HPM_P1;HPM_P2
2022/01/20 00:02:18;;;;;;;11.50;1.88;;;2.50;99.90;;;;;;5101280;28;20195;-74
2022/01/20 00:04:51;;;;;;;7.63;2.30;;;2.50;99.90;;;;;;5100679;28;20298;-77
2022/01/20 00:07:33;;;;;;;12.82;2.70;;;2.50;99.90;;;;;;5100529;28;20220;-75
2022/01/20 00:26:53;;;;;;;16.33;3.65;;;2.80;99.90;;;;;;5105004;28;20306;-79
2022/01/20 00:29:27;;;;;;;17.33;5.57;;;3.00;99.90;;;;;;5105780;28;20764;-76
2022/01/20 00:32:08;;;;;;;15.68;3.83;;;3.10;99.90;;;;;;5110340;28;20196;-80
2022/01/20 00:37:28;;;;;;;17.27;2.63;;;3.50;99.90;;;;;;5100775;28;20216;-79
2022/01/20 00:39:58;;;;;;;12.27;3.75;;;3.60;99.90;;;;;;5111168;28;20282;-72
2022/01/20 00:42:27;;;;;;;12.75;3.13;;;3.70;99.90;;;;;;5103705;28;20891;-73
2022/01/20 00:44:55;;;;;;;18.75;4.10;;;3.80;99.90;;;;;;5102732;28;20192;-72
2022/01/20 00:47:22;;;;;;;12.02;3.33;;;3.80;99.90;;;;;;5102966;28;20231;-72
2022/01/20 00:49:52;;;;;;;12.88;4.57;;;3.70;99.90;;;;;;5103315;28;20200;-74
2022/01/20 00:52:19;;;;;;;13.65;3.22;;;3.70;99.90;;;;;;5102898;28;20346;-75
2022/01/20 00:54:47;;;;;;;15.82;3.38;;;3.70;99.90;;;;;;5102615;28;20191;-72
2022/01/20 00:57:16;;;;;;;21.38;3.40;;;3.90;99.90;;;;;;5102973;28;20224;-72
2022/01/20 00:59:43;;;;;;;18.88;3.58;;;3.90;99.90;;;;;;5103808;28;20673;-75
2022/01/20 01:02:12;;;;;;;22.60;3.70;;;3.90;99.90;;;;;;5103106;28;20204;-72
2022/01/20 01:04:41;;;;;;;14.50;3.33;;;4.00;99.90;;;;;;5103313;28;20369;-74
2022/01/20 01:09:55;;;;;;;8.32;1.83;;;4.10;99.90;;;;;;5103242;28;20857;-78
2022/01/20 01:12:32;;;;;;;13.93;3.20;;;4.10;99.90;;;;;;5104157;28;20207;-80
2022/01/20 01:15:01;;;;;;;16.20;2.72;;;4.10;99.90;;;;;;5103529;28;20199;-76
2022/01/20 01:20:18;;;;;;;7.20;2.33;;;3.90;99.90;;;;;;5103307;28;20206;-75
2022/01/20 01:22:47;;;;;;;12.52;3.30;;;3.70;99.90;;;;;;5102414;28;20195;-75
2022/01/20 01:25:15;;;;;;;10.40;2.28;;;3.60;99.90;;;;;;5102466;28;20203;-76
2022/01/20 01:27:45;;;;;;;10.15;1.73;;;3.40;99.90;;;;;;5102764;28;20315;-75
2022/01/20 01:30:31;;;;;;;12.43;2.70;;;3.40;99.90;;;;;;5103133;28;20195;-74
2022/01/20 01:33:00;;;;;;;5.78;1.63;;;3.30;99.90;;;;;;5102270;28;20302;-74
2022/01/20 01:35:28;;;;;;;9.60;1.40;;;3.20;99.90;;;;;;5101174;28;20214;-75
2022/01/20 01:40:42;;;;;;;16.10;2.03;;;3.10;99.90;;;;;;5101999;28;20366;-73
2022/01/20 01:43:25;;;;;;;14.90;2.13;;;3.10;99.90;;;;;;5104135;28;20196;-79
2022/01/20 01:45:53;;;;;;;5.45;1.60;;;3.10;99.90;;;;;;5103337;28;20195;-74
2022/01/20 01:48:21;;;;;;;13.75;3.95;;;3.10;99.90;;;;;;5101852;28;20246;-75
2022/01/20 01:50:49;;;;;;;10.60;2.00;;;3.00;99.90;;;;;;5102157;28;20295;-76
2022/01/20 01:53:18;;;;;;;6.57;1.88;;;3.00;99.90;;;;;;5102008;28;20784;-78
2022/01/20 01:55:46;;;;;;;9.68;2.10;;;2.90;99.90;;;;;;5105275;28;20272;-78
2022/01/20 01:58:15;;;;;;;5.85;1.75;;;2.90;99.90;;;;;;5110797;28;20433;-78
2022/01/20 02:00:43;;;;;;;8.20;2.97;;;2.90;99.90;;;;;;5110281;28;20198;-78
2022/01/20 02:03:13;;;;;;;9.30;1.50;;;2.90;99.90;;;;;;5110770;28;20206;-78
2022/01/20 02:05:55;;;;;;;7.35;1.30;;;2.80;99.90;;;;;;5104554;28;20681;-78
2022/01/20 02:08:39;;;;;;;8.20;1.58;;;2.80;99.90;;;;;;5105150;28;20216;-75
2022/01/20 02:19:26;;;;;;;10.05;1.85;;;2.70;99.90;;;;;;5102144;28;20204;-74
2022/01/20 02:22:01;;;;;;;8.18;2.17;;;2.80;99.90;;;;;;5101652;28;20294;-73
2022/01/20 02:24:31;;;;;;;8.73;1.60;;;2.70;99.90;;;;;;5101327;28;20200;-72
2022/01/20 02:26:59;;;;;;;15.75;3.28;;;2.80;99.90;;;;;;5102173;28;20230;-71
2022/01/20 02:29:28;;;;;;;4.15;1.30;;;2.90;99.90;;;;;;5102517;28;20216;-75
2022/01/20 02:31:57;;;;;;;9.73;4.18;;;2.90;99.90;;;;;;5103042;28;20330;-74
2022/01/20 02:34:28;;;;;;;9.30;2.67;;;2.80;99.90;;;;;;5103733;28;20208;-74
2022/01/20 02:37:02;;;;;;;17.17;3.00;;;2.80;99.90;;;;;;5126575;28;20284;-73
2022/01/20 02:39:57;;;;;;;8.48;2.33;;;2.80;99.90;;;;;;5113611;28;20202;-73
2022/01/20 02:45:07;;;;;;;13.32;2.25;;;2.90;99.90;;;;;;5100651;28;20793;-72
2022/01/20 02:47:35;;;;;;;11.43;2.10;;;2.80;99.90;;;;;;5100606;28;20249;-72
2022/01/20 02:50:04;;;;;;;9.32;2.80;;;2.80;99.90;;;;;;5100682;28;20277;-74
2022/01/20 02:52:33;;;;;;;6.97;1.70;;;2.80;99.90;;;;;;5100489;28;20203;-73
2022/01/20 02:55:01;;;;;;;10.20;2.72;;;2.70;99.90;;;;;;5101918;28;20211;-79
2022/01/20 02:57:29;;;;;;;10.40;2.20;;;2.70;99.90;;;;;;5106236;28;20215;-77
2022/01/20 02:59:57;;;;;;;11.13;2.90;;;2.70;99.90;;;;;;5103190;28;20199;-75
2022/01/20 03:02:24;;;;;;;15.48;2.90;;;2.60;99.90;;;;;;5100637;28;20210;-74
2022/01/20 03:04:52;;;;;;;10.63;2.33;;;2.50;99.90;;;;;;5100749;28;20762;-76
2022/01/20 03:07:20;;;;;;;8.18;3.20;;;2.40;99.90;;;;;;5099841;28;20243;-77
2022/01/20 03:09:49;;;;;;;16.10;3.55;;;2.40;99.90;;;;;;5100499;28;20203;-75
2022/01/20 03:12:17;;;;;;;10.27;3.33;;;2.30;99.90;;;;;;5100228;28;20206;-74
2022/01/20 03:14:45;;;;;;;17.35;3.22;;;2.30;99.90;;;;;;5099819;28;20231;-73
2022/01/20 03:17:14;;;;;;;10.43;2.20;;;2.20;99.90;;;;;;5100528;28;20223;-76
2022/01/20 03:19:42;;;;;;;13.38;3.45;;;2.20;99.90;;;;;;5100639;28;20195;-77
2022/01/20 03:22:10;;;;;;;13.88;3.13;;;2.30;99.90;;;;;;5100052;28;20195;-75
2022/01/20 03:24:38;;;;;;;11.15;2.80;;;2.20;99.90;;;;;;5098993;28;20203;-72
2022/01/20 03:27:07;;;;;;;10.70;2.25;;;2.20;99.90;;;;;;5099704;28;20219;-72
2022/01/20 03:29:35;;;;;;;15.00;3.35;;;2.20;99.90;;;;;;5099321;28;20206;-75
2022/01/20 03:32:04;;;;;;;11.65;1.92;;;2.10;99.90;;;;;;5099191;28;20811;-74
2022/01/20 03:34:32;;;;;;;9.05;2.35;;;2.00;99.90;;;;;;5100009;28;20222;-75
2022/01/20 03:37:03;;;;;;;7.88;1.70;;;2.10;99.90;;;;;;5099275;28;20306;-76
2022/01/20 03:39:31;;;;;;;5.93;2.00;;;2.00;99.90;;;;;;5099375;28;20239;-76
2022/01/20 03:41:59;;;;;;;9.73;2.88;;;2.10;99.90;;;;;;5099932;28;20195;-75
2022/01/20 03:44:28;;;;;;;13.65;2.20;;;2.10;99.90;;;;;;5100300;28;20207;-76
2022/01/20 03:47:00;;;;;;;7.93;1.50;;;2.20;99.90;;;;;;5100616;28;20302;-76
2022/01/20 03:49:35;;;;;;;10.00;2.03;;;2.30;99.90;;;;;;5100030;28;20204;-75
2022/01/20 03:52:05;;;;;;;9.25;1.85;;;2.30;99.90;;;;;;5099309;28;20215;-72
2022/01/20 03:54:32;;;;;;;7.25;2.20;;;2.40;99.90;;;;;;5099409;28;20223;-75
2022/01/20 03:57:01;;;;;;;11.15;2.45;;;2.40;99.90;;;;;;5098938;28;20754;-73
2022/01/20 03:59:30;;;;;;;7.25;3.72;;;2.40;99.90;;;;;;5099075;28;20201;-73
2022/01/20 04:01:58;;;;;;;8.60;1.13;;;2.40;99.90;;;;;;5098977;28;20671;-73
2022/01/20 04:04:26;;;;;;;9.23;2.47;;;2.30;99.90;;;;;;5099523;28;20566;-76
2022/01/20 04:06:54;;;;;;;8.23;2.25;;;2.20;99.90;;;;;;5099262;28;20222;-74
2022/01/20 04:09:22;;;;;;;12.38;2.08;;;2.20;99.90;;;;;;5099212;28;20202;-73
2022/01/20 04:11:51;;;;;;;7.97;1.70;;;2.10;99.90;;;;;;5098849;28;20206;-74
2022/01/20 04:14:20;;;;;;;6.05;1.98;;;2.10;99.90;;;;;;5099253;28;20819;-74
2022/01/20 04:17:03;;;;;;;5.20;1.88;;;2.00;99.90;;;;;;5105316;28;20227;-74
2022/01/20 04:19:33;;;;;;;6.22;1.88;;;1.90;99.90;;;;;;5107962;28;20191;-74
2022/01/20 04:22:02;;;;;;;4.30;1.73;;;1.90;99.90;;;;;;5099735;28;20199;-75
2022/01/20 04:24:30;;;;;;;8.23;2.10;;;1.80;99.90;;;;;;5099610;28;20205;-74
2022/01/20 04:26:58;;;;;;;11.10;2.58;;;1.80;99.90;;;;;;5098551;28;20227;-74
2022/01/20 04:29:26;;;;;;;15.73;2.90;;;1.70;99.90;;;;;;5098855;28;20199;-74
2022/01/20 04:31:55;;;;;;;9.43;2.47;;;1.80;99.90;;;;;;5098950;28;20192;-75
2022/01/20 04:34:23;;;;;;;9.73;2.35;;;1.70;99.90;;;;;;5098635;28;20219;-73
2022/01/20 04:36:53;;;;;;;8.98;1.95;;;1.70;99.90;;;;;;5098694;28;20227;-75
2022/01/20 04:39:24;;;;;;;5.15;2.35;;;1.60;99.90;;;;;;5099095;28;20211;-75
2022/01/20 04:41:53;;;;;;;11.85;2.08;;;1.60;99.90;;;;;;5099054;28;20712;-74
2022/01/20 04:44:34;;;;;;;6.28;2.03;;;1.50;99.90;;;;;;5099209;28;20203;-75
2022/01/20 04:47:14;;;;;;;4.30;1.92;;;1.50;99.90;;;;;;5099453;28;20854;-74
2022/01/20 04:57:59;;;;;;;12.57;2.55;;;1.40;99.90;;;;;;5113825;28;20287;-72
2022/01/20 05:00:27;;;;;;;14.07;2.17;;;1.40;99.90;;;;;;5115397;28;20927;-73
2022/01/20 05:02:57;;;;;;;9.60;2.00;;;1.40;99.90;;;;;;5117861;28;20209;-72
2022/01/20 05:05:30;;;;;;;8.85;2.20;;;1.40;99.90;;;;;;5107612;28;20200;-73
2022/01/20 05:08:00;;;;;;;9.48;1.85;;;1.40;99.90;;;;;;5103560;28;20718;-75
2022/01/20 05:10:30;;;;;;;10.00;2.10;;;1.40;99.90;;;;;;5110116;28;20208;-72
2022/01/20 05:13:09;;;;;;;7.22;2.25;;;1.30;99.90;;;;;;5101968;28;20207;-72
2022/01/20 05:15:37;;;;;;;11.25;2.45;;;1.30;99.90;;;;;;5103405;28;20215;-74
2022/01/20 05:18:07;;;;;;;8.80;2.10;;;1.40;99.90;;;;;;5103273;28;20746;-77
2022/01/20 05:20:35;;;;;;;12.82;3.30;;;1.40;99.90;;;;;;5103957;28;20183;-74
2022/01/20 05:23:03;;;;;;;7.53;2.53;;;1.40;99.90;;;;;;5103973;28;20206;-74
2022/01/20 05:25:31;;;;;;;11.02;2.63;;;1.40;99.90;;;;;;5103631;28;20204;-74
2022/01/20 05:27:59;;;;;;;7.53;3.28;;;1.40;99.90;;;;;;5105554;28;20207;-78
2022/01/20 05:30:27;;;;;;;9.68;2.85;;;1.40;99.90;;;;;;5107392;28;20200;-78
2022/01/20 05:32:54;;;;;;;16.55;4.00;;;1.40;99.90;;;;;;5106355;28;20214;-77
2022/01/20 05:35:24;;;;;;;9.32;1.77;;;1.50;99.90;;;;;;5105725;28;20220;-77
2022/01/20 05:37:51;;;;;;;10.05;2.50;;;1.50;99.90;;;;;;5115524;28;20219;-76
2022/01/20 05:40:20;;;;;;;12.07;3.47;;;1.50;99.90;;;;;;5106456;28;20208;-79
2022/01/20 05:42:47;;;;;;;14.40;3.50;;;1.60;99.90;;;;;;5107019;28;20202;-76
2022/01/20 05:45:15;;;;;;;14.05;2.22;;;1.60;99.90;;;;;;5108983;28;20592;-79
2022/01/20 05:47:44;;;;;;;15.55;2.65;;;1.60;99.90;;;;;;5106943;28;20216;-77
2022/01/20 05:50:13;;;;;;;9.23;2.20;;;1.50;99.90;;;;;;5103175;28;20212;-75
2022/01/20 05:52:42;;;;;;;8.88;2.67;;;1.50;99.90;;;;;;5102483;28;20207;-74
2022/01/20 05:55:14;;;;;;;11.40;3.28;;;1.50;99.90;;;;;;5102717;28;20226;-77
2022/01/20 05:57:43;;;;;;;18.90;3.13;;;1.50;99.90;;;;;;5103764;28;20227;-71
2022/01/20 06:00:15;;;;;;;9.45;3.22;;;1.50;99.90;;;;;;5102187;28;20353;-74
2022/01/20 06:05:31;;;;;;;12.10;3.28;;;1.50;99.90;;;;;;5101402;28;20302;-73
2022/01/20 06:08:01;;;;;;;6.70;2.55;;;1.60;99.90;;;;;;5105061;28;20222;-74
2022/01/20 06:10:29;;;;;;;10.75;3.85;;;1.60;99.90;;;;;;5105258;28;20191;-76
2022/01/20 06:12:56;;;;;;;10.15;2.70;;;1.60;99.90;;;;;;5105905;28;20426;-73
2022/01/20 06:15:24;;;;;;;16.38;4.28;;;1.60;99.90;;;;;;5103370;28;20220;-72
2022/01/20 06:17:52;;;;;;;8.45;2.70;;;1.60;99.90;;;;;;5101822;28;20858;-73
2022/01/20 06:20:20;;;;;;;18.05;3.22;;;1.50;99.90;;;;;;5102152;28;20339;-73
2022/01/20 06:22:49;;;;;;;13.48;3.47;;;1.50;99.90;;;;;;5101090;28;20881;-72
2022/01/20 06:25:18;;;;;;;11.18;3.17;;;1.50;99.90;;;;;;5101535;28;20281;-72
2022/01/20 06:27:45;;;;;;;14.23;3.33;;;1.50;99.90;;;;;;5101552;28;20302;-73
2022/01/20 06:30:14;;;;;;;14.57;2.80;;;1.40;99.90;;;;;;5100908;28;20206;-72
2022/01/20 06:32:42;;;;;;;18.98;3.58;;;1.50;99.90;;;;;;5101316;28;20298;-72
2022/01/20 06:35:10;;;;;;;14.65;2.90;;;1.50;99.90;;;;;;5100608;28;20195;-72
2022/01/20 06:37:38;;;;;;;11.27;3.40;;;1.50;99.90;;;;;;5100652;28;20824;-70
2022/01/20 06:40:07;;;;;;;15.70;6.03;;;1.50;99.90;;;;;;5100797;28;20202;-71
2022/01/20 06:42:37;;;;;;;19.20;3.53;;;1.50;99.90;;;;;;5100946;28;20208;-72
2022/01/20 06:45:06;;;;;;;20.83;4.65;;;1.50;99.90;;;;;;5100832;28;20200;-72
2022/01/20 06:47:35;;;;;;;16.00;3.33;;;1.50;99.90;;;;;;5101363;28;20219;-69
2022/01/20 06:50:03;;;;;;;8.05;2.60;;;1.50;99.90;;;;;;5100311;28;20363;-70
2022/01/20 06:52:31;;;;;;;14.30;3.35;;;1.50;99.90;;;;;;5100303;28;20435;-71
2022/01/20 06:55:00;;;;;;;9.93;2.47;;;1.50;99.90;;;;;;5099689;28;20200;-72
2022/01/20 06:57:28;;;;;;;22.58;4.22;;;1.50;99.90;;;;;;5100326;28;20292;-72
2022/01/20 06:59:57;;;;;;;16.80;4.07;;;1.50;99.90;;;;;;5100561;28;20212;-70
2022/01/20 07:02:25;;;;;;;13.32;3.65;;;1.50;99.90;;;;;;5100203;28;20199;-71
2022/01/20 07:04:53;;;;;;;9.07;3.03;;;1.50;99.90;;;;;;5099524;28;20214;-70
2022/01/20 07:07:22;;;;;;;12.05;2.63;;;1.70;99.90;;;;;;5102349;28;20401;-70
2022/01/20 07:09:51;;;;;;;13.40;2.70;;;1.70;99.90;;;;;;5099865;28;20209;-72
2022/01/20 07:12:19;;;;;;;6.68;2.42;;;1.70;99.90;;;;;;5100213;28;20199;-72
2022/01/20 07:14:47;;;;;;;17.90;3.67;;;1.70;99.90;;;;;;5102067;28;20200;-74
2022/01/20 07:17:16;;;;;;;9.40;2.22;;;1.60;99.90;;;;;;5118002;27;20307;-71
2022/01/20 07:19:44;;;;;;;10.88;4.25;;;1.60;99.90;;;;;;5122063;27;20265;-70
2022/01/20 07:22:12;;;;;;;15.70;2.58;;;1.70;99.90;;;;;;5123405;27;20202;-67
2022/01/20 07:24:40;;;;;;;13.18;3.30;;;1.70;99.90;;;;;;5124328;27;20613;-70
2022/01/20 07:27:08;;;;;;;9.35;3.08;;;1.70;99.90;;;;;;5138910;27;20223;-69
2022/01/20 07:29:36;;;;;;;11.73;3.30;;;1.60;99.90;;;;;;5134058;27;20306;-70
2022/01/20 07:32:06;;;;;;;12.80;3.15;;;1.60;99.90;;;;;;5122181;27;20191;-71
2022/01/20 07:34:36;;;;;;;19.27;3.40;;;1.60;99.90;;;;;;5119440;27;20733;-72
2022/01/20 07:37:05;;;;;;;8.77;3.13;;;1.60;99.90;;;;;;5121447;27;20227;-70
2022/01/20 07:39:33;;;;;;;12.18;3.92;;;1.60;99.90;;;;;;5121425;27;20198;-69
2022/01/20 07:42:02;;;;;;;19.55;4.20;;;1.60;99.90;;;;;;5121181;27;20205;-70
2022/01/20 07:44:30;;;;;;;10.50;2.30;;;1.70;99.90;;;;;;5121760;27;20229;-70
2022/01/20 07:46:58;;;;;;;10.63;2.90;;;1.70;99.90;;;;;;5120848;27;20229;-70
2022/01/20 07:49:27;;;;;;;14.70;5.97;;;1.70;99.90;;;;;;5122544;27;20199;-69
2022/01/20 07:51:56;;;;;;;14.07;3.22;;;1.70;99.90;;;;;;5120075;27;20207;-69
2022/01/20 07:54:25;;;;;;;9.23;3.20;;;1.70;99.90;;;;;;5116848;27;20200;-70
2022/01/20 07:56:53;;;;;;;7.85;2.90;;;1.70;99.90;;;;;;5107631;27;20215;-70
2022/01/20 07:59:21;;;;;;;9.40;3.00;;;1.70;99.90;;;;;;5109822;27;20198;-69
2022/01/20 08:01:49;;;;;;;13.25;3.25;;;1.80;99.90;;;;;;5109175;27;20195;-71
2022/01/20 08:04:17;;;;;;;10.95;2.20;;;1.80;99.90;;;;;;5107086;27;20794;-70
2022/01/20 08:06:45;;;;;;;11.55;3.20;;;1.80;99.90;;;;;;5109549;28;20211;-71
2022/01/20 08:09:15;;;;;;;11.00;2.97;;;1.90;99.90;;;;;;5108846;28;20195;-70
2022/01/20 08:11:43;;;;;;;13.52;2.78;;;1.90;99.90;;;;;;5098861;28;20719;-70
2022/01/20 08:14:14;;;;;;;11.10;3.50;;;2.00;99.90;;;;;;5098803;28;20843;-71
2022/01/20 08:16:42;;;;;;;10.40;3.45;;;2.00;99.90;;;;;;5099252;28;20224;-71
2022/01/20 08:19:10;;;;;;;9.75;2.70;;;2.00;99.90;;;;;;5115815;28;20202;-71
2022/01/20 08:21:38;;;;;;;22.63;3.60;;;2.00;99.90;;;;;;5119506;28;20191;-71
2022/01/20 08:24:06;;;;;;;9.60;2.88;;;2.00;99.90;;;;;;5124162;27;20247;-72
2022/01/20 08:26:35;;;;;;;8.93;1.90;;;1.90;99.90;;;;;;5140886;27;20297;-73
2022/01/20 08:29:03;;;;;;;13.57;3.00;;;1.90;99.90;;;;;;5141950;27;20378;-73
2022/01/20 08:31:31;;;;;;;3.85;1.15;;;1.90;99.90;;;;;;5139453;27;20198;-72
2022/01/20 08:33:59;;;;;;;7.43;3.00;;;1.90;99.90;;;;;;5140208;27;20198;-72
2022/01/20 08:36:27;;;;;;;9.25;2.13;;;2.00;99.90;;;;;;5121836;27;20218;-72
2022/01/20 08:38:55;;;;;;;5.85;2.28;;;2.00;99.90;;;;;;5140260;27;20844;-68
2022/01/20 08:41:23;;;;;;;9.15;2.40;;;1.90;99.90;;;;;;5140134;27;20198;-75
2022/01/20 08:43:52;;;;;;;11.27;2.55;;;2.00;99.90;;;;;;5140663;27;20221;-74
2022/01/20 08:46:26;;;;;;;6.68;2.28;;;2.00;99.90;;;;;;5143106;27;20198;-73
2022/01/20 08:48:54;;;;;;;4.40;1.73;;;2.00;99.90;;;;;;5145376;27;20711;-74
2022/01/20 08:51:22;;;;;;;16.30;2.30;;;2.00;99.90;;;;;;5145597;27;20759;-75
2022/01/20 08:53:50;;;;;;;18.60;2.45;;;2.00;99.90;;;;;;5133983;27;20204;-75
2022/01/20 08:56:18;;;;;;;10.90;3.63;;;2.00;99.90;;;;;;5113092;27;20195;-75
2022/01/20 08:58:46;;;;;;;5.32;2.00;;;2.10;99.90;;;;;;5113301;27;20650;-73
2022/01/20 09:01:18;;;;;;;6.13;2.50;;;2.20;99.90;;;;;;5114872;27;20329;-75
2022/01/20 09:03:49;;;;;;;9.30;2.80;;;2.20;99.90;;;;;;5106001;28;20407;-74
2022/01/20 09:06:17;;;;;;;10.75;2.35;;;2.30;99.90;;;;;;5103554;28;20284;-75
2022/01/20 09:08:44;;;;;;;11.60;2.75;;;2.30;99.90;;;;;;5104198;27;20202;-74
2022/01/20 09:11:19;;;;;;;23.75;3.33;;;2.30;99.90;;;;;;5103101;28;20188;-74
2022/01/20 09:16:43;;;;;;;12.32;2.83;;;2.50;99.90;;;;;;5082853;28;20835;-74
2022/01/20 09:19:11;;;;;;;6.95;2.25;;;2.70;99.90;;;;;;5102637;28;20710;-74
2022/01/20 09:21:39;;;;;;;14.65;2.70;;;2.80;99.90;;;;;;5103542;28;20224;-75
2022/01/20 09:24:08;;;;;;;10.55;2.47;;;3.00;99.90;;;;;;5102884;28;20230;-75
2022/01/20 09:26:36;;;;;;;8.40;2.13;;;3.10;99.90;;;;;;5102239;28;20219;-74
2022/01/20 09:29:04;;;;;;;7.03;2.35;;;3.30;99.90;;;;;;5103623;28;20243;-74
2022/01/20 09:31:38;;;;;;;11.57;2.40;;;3.30;99.90;;;;;;5103773;28;20205;-67
2022/01/20 09:34:09;;;;;;;5.80;1.20;;;3.30;99.90;;;;;;5105151;28;20198;-72
2022/01/20 09:36:37;;;;;;;3.05;1.25;;;3.20;99.90;;;;;;5109979;28;20222;-73
2022/01/20 09:39:05;;;;;;;6.28;0.90;;;3.00;99.90;;;;;;5114480;28;20204;-73
2022/01/20 09:41:33;;;;;;;7.30;1.85;;;3.10;99.90;;;;;;5114015;28;20282;-73
2022/01/20 09:44:01;;;;;;;5.43;1.65;;;3.10;99.90;;;;;;5110238;28;20196;-74
2022/01/20 09:46:30;;;;;;;7.18;2.03;;;3.00;99.90;;;;;;5105800;28;20216;-73
2022/01/20 09:48:58;;;;;;;8.63;4.50;;;3.00;99.90;;;;;;5105151;28;20222;-72
2022/01/20 09:51:27;;;;;;;7.75;1.77;;;3.00;99.90;;;;;;5104166;28;20216;-71
2022/01/20 09:53:55;;;;;;;5.53;1.50;;;3.00;99.90;;;;;;5116712;28;20227;-73
2022/01/20 09:56:24;;;;;;;5.00;1.75;;;3.10;99.90;;;;;;5126877;28;20255;-72
2022/01/20 09:58:51;;;;;;;7.25;2.38;;;3.10;99.90;;;;;;5104125;28;20226;-72
2022/01/20 10:01:35;;;;;;;3.95;1.60;;;2.90;99.90;;;;;;5102144;28;20208;-73
2022/01/20 10:04:03;;;;;;;3.40;1.08;;;2.80;99.90;;;;;;5100590;28;20213;-73
2022/01/20 10:06:32;;;;;;;9.50;2.90;;;2.70;99.90;;;;;;5100353;28;20256;-73
2022/01/20 10:09:02;;;;;;;9.77;2.25;;;2.60;99.90;;;;;;5101538;28;20203;-72
2022/01/20 10:11:50;;;;;;;9.07;1.65;;;2.70;99.90;;;;;;5100709;28;20210;-73
2022/01/20 10:14:17;;;;;;;4.75;2.15;;;2.80;99.90;;;;;;5100778;28;20211;-73
2022/01/20 10:16:46;;;;;;;8.38;2.45;;;2.90;99.90;;;;;;5109906;27;20223;-73
2022/01/20 10:19:24;;;;;;;4.32;1.52;;;3.10;99.90;;;;;;5107205;27;20199;-75
2022/01/20 10:21:54;;;;;;;9.20;3.80;;;3.30;99.90;;;;;;5102332;28;20231;-74
2022/01/20 10:24:22;;;;;;;8.63;1.77;;;3.40;99.90;;;;;;5109186;27;20199;-72
2022/01/20 10:26:51;;;;;;;7.00;1.65;;;3.50;99.90;;;;;;5123870;27;20233;-79
2022/01/20 10:29:19;;;;;;;1.15;1.02;;;3.30;99.90;;;;;;5128177;27;20898;-75
2022/01/20 10:32:07;;;;;;;7.53;1.52;;;3.00;99.90;;;;;;5125266;27;20195;-75
2022/01/20 10:34:36;;;;;;;5.55;1.63;;;2.70;99.90;;;;;;5104338;28;20206;-77
2022/01/20 10:37:13;;;;;;;5.72;1.50;;;2.60;99.90;;;;;;5105354;28;20223;-78
2022/01/20 10:39:43;;;;;;;5.05;0.80;;;2.40;99.90;;;;;;5110973;28;20176;-79
2022/01/20 10:42:13;;;;;;;2.00;0.93;;;2.30;99.90;;;;;;5110813;28;20235;-77
2022/01/20 10:44:43;;;;;;;1.75;0.60;;;2.10;99.90;;;;;;5110437;28;20302;-82
2022/01/20 10:47:25;;;;;;;0.85;0.60;;;2.00;99.90;;;;;;5104569;28;20796;-78
2022/01/20 10:49:53;;;;;;;3.17;1.42;;;1.70;99.90;;;;;;5100806;28;20234;-73
2022/01/20 10:52:24;;;;;;;5.03;0.80;;;1.60;99.90;;;;;;5101371;28;20246;-74
2022/01/20 10:54:54;;;;;;;1.67;1.42;;;1.70;99.90;;;;;;5099825;28;20192;-74
2022/01/20 10:57:28;;;;;;;2.17;0.93;;;1.90;99.90;;;;;;5099967;28;20222;-72
2022/01/20 10:59:57;;;;;;;2.42;0.82;;;1.90;99.90;;;;;;5100732;28;20210;-74
2022/01/20 11:02:29;;;;;;;5.75;1.42;;;1.90;99.90;;;;;;5100712;28;20196;-72
2022/01/20 11:04:58;;;;;;;2.78;1.27;;;2.00;99.90;;;;;;5100780;28;20208;-73
2022/01/20 11:07:28;;;;;;;7.82;2.28;;;2.00;99.90;;;;;;5100675;28;20226;-72
2022/01/20 11:10:01;;;;;;;8.32;3.05;;;2.00;99.90;;;;;;5098967;28;20219;-72
2022/01/20 11:12:30;;;;;;;5.90;2.33;;;2.00;99.90;;;;;;5099984;28;20196;-72
2022/01/20 11:15:06;;;;;;;8.48;1.85;;;2.10;99.90;;;;;;5100432;28;20207;-72
2022/01/20 11:17:35;;;;;;;7.95;1.95;;;2.30;99.90;;;;;;5099683;28;20296;-73
2022/01/20 11:20:08;;;;;;;10.60;2.40;;;2.40;99.90;;;;;;5099642;28;20212;-71
2022/01/20 11:22:38;;;;;;;12.50;2.35;;;2.40;99.90;;;;;;5100228;28;20199;-73
2022/01/20 11:25:08;;;;;;;8.75;2.65;;;2.40;99.90;;;;;;5099950;28;20873;-73
2022/01/20 11:27:39;;;;;;;3.97;1.80;;;2.40;99.90;;;;;;5099427;28;20311;-73
2022/01/20 11:30:15;;;;;;;9.15;2.10;;;2.70;99.90;;;;;;5099755;28;20799;-74
2022/01/20 11:32:45;;;;;;;4.68;2.58;;;2.90;99.90;;;;;;5100772;28;20278;-71
2022/01/20 11:35:16;;;;;;;10.02;2.15;;;3.10;99.90;;;;;;5099326;28;20284;-72
2022/01/20 11:37:57;;;;;;;3.75;1.60;;;3.30;99.90;;;;;;5099879;28;20215;-72
2022/01/20 11:40:26;;;;;;;10.82;2.20;;;3.50;99.90;;;;;;5100371;28;20203;-72
2022/01/20 11:42:58;;;;;;;8.20;1.95;;;3.60;99.90;;;;;;5100988;28;20318;-71
2022/01/20 11:45:31;;;;;;;8.13;1.83;;;3.60;99.90;;;;;;5099977;28;20196;-72
2022/01/20 11:48:11;;;;;;;4.22;2.35;;;3.80;99.90;;;;;;5100582;28;20956;-72
2022/01/20 11:50:40;;;;;;;7.45;3.17;;;3.80;99.90;;;;;;5099748;28;20838;-70
2022/01/20 11:53:18;;;;;;;13.48;2.47;;;4.00;99.90;;;;;;5106788;27;20349;-71
2022/01/20 11:55:50;;;;;;;12.68;2.13;;;4.00;99.90;;;;;;5118700;27;20790;-71
2022/01/20 11:58:21;;;;;;;8.20;2.20;;;4.10;99.90;;;;;;5119810;27;20275;-72
2022/01/20 12:01:01;;;;;;;8.57;1.88;;;4.10;99.90;;;;;;5099552;28;20230;-72
2022/01/20 12:03:30;;;;;;;3.58;1.23;;;4.10;99.90;;;;;;5099951;28;20195;-72
2022/01/20 12:06:00;;;;;;;3.92;2.08;;;4.00;99.90;;;;;;5103026;28;20203;-70
2022/01/20 12:08:30;;;;;;;7.32;2.00;;;4.00;99.90;;;;;;5099734;28;20243;-72
2022/01/20 12:10:59;;;;;;;7.55;2.17;;;4.10;99.90;;;;;;5100139;28;20203;-71
2022/01/20 12:13:27;;;;;;;10.93;1.95;;;4.10;99.90;;;;;;5100487;28;20204;-72
2022/01/20 12:15:58;;;;;;;9.35;2.22;;;4.10;99.90;;;;;;5106361;28;20356;-72
2022/01/20 12:18:26;;;;;;;7.95;1.85;;;4.20;99.90;;;;;;5107299;28;20207;-72
2022/01/20 12:20:54;;;;;;;11.32;3.08;;;4.10;99.90;;;;;;5111349;28;20608;-71
2022/01/20 12:23:24;;;;;;;4.97;2.33;;;4.00;99.90;;;;;;5120565;28;20393;-72
2022/01/20 12:26:01;;;;;;;8.27;1.98;;;3.90;99.90;;;;;;5124880;28;20326;-72
2022/01/20 12:28:30;;;;;;;11.40;1.50;;;4.10;99.90;;;;;;5109237;28;20737;-72
2022/01/20 12:31:02;;;;;;;6.70;2.17;;;4.20;99.90;;;;;;5109163;28;20301;-70
2022/01/20 12:33:33;;;;;;;5.07;1.33;;;4.20;99.90;;;;;;5107192;28;20202;-72
2022/01/20 12:36:04;;;;;;;6.25;2.00;;;4.40;99.90;;;;;;5107980;28;20264;-73
2022/01/20 12:38:34;;;;;;;7.60;2.00;;;4.50;99.90;;;;;;5105161;28;20236;-74
2022/01/20 12:41:05;;;;;;;9.52;2.45;;;4.60;99.90;;;;;;5107245;28;20209;-73
2022/01/20 12:43:36;;;;;;;7.68;2.58;;;4.70;99.90;;;;;;5104323;28;20290;-73
2022/01/20 12:46:04;;;;;;;12.57;2.05;;;4.70;99.90;;;;;;5105124;28;20815;-73
2022/01/20 12:48:33;;;;;;;4.10;1.38;;;4.40;99.90;;;;;;5104763;28;20219;-73
2022/01/20 12:51:04;;;;;;;4.97;1.38;;;3.90;99.90;;;;;;5103475;28;20256;-72
2022/01/20 12:53:37;;;;;;;4.20;1.50;;;3.40;99.90;;;;;;5103980;28;20609;-73
2022/01/20 12:56:09;;;;;;;6.55;0.93;;;2.80;99.90;;;;;;5104017;28;20740;-72
2022/01/20 12:58:47;;;;;;;3.95;1.27;;;2.40;99.90;;;;;;5104455;28;20195;-72
2022/01/20 13:01:15;;;;;;;2.80;1.00;;;2.10;99.90;;;;;;5105547;28;20215;-74
2022/01/20 13:03:44;;;;;;;4.40;1.00;;;1.80;99.90;;;;;;5106676;28;20335;-74
2022/01/20 13:06:21;;;;;;;2.50;0.95;;;1.70;99.90;;;;;;5106065;28;20208;-74
2022/01/20 13:09:01;;;;;;;5.35;1.70;;;1.70;99.90;;;;;;5105028;28;20225;-71
2022/01/20 13:11:32;;;;;;;3.67;1.92;;;1.70;99.90;;;;;;5105102;28;20282;-72
2022/01/20 13:14:00;;;;;;;6.63;1.00;;;1.70;99.90;;;;;;5104463;28;20214;-74
2022/01/20 13:16:31;;;;;;;1.65;0.98;;;1.70;99.90;;;;;;5104426;28;20226;-73
2022/01/20 13:19:01;;;;;;;4.97;1.10;;;1.70;99.90;;;;;;5106324;28;20844;-74
2022/01/20 13:21:38;;;;;;;2.38;0.80;;;1.70;99.90;;;;;;5105404;28;20875;-72
2022/01/20 13:24:08;;;;;;;4.68;0.98;;;1.60;99.90;;;;;;5105305;28;20275;-73
2022/01/20 13:26:52;;;;;;;2.38;0.70;;;1.50;99.90;;;;;;5104970;28;20224;-72
2022/01/20 13:29:25;;;;;;;8.43;1.23;;;1.40;99.90;;;;;;5103995;28;20198;-73
2022/01/20 13:31:57;;;;;;;2.78;0.70;;;1.20;99.90;;;;;;5103068;28;20196;-73
2022/01/20 13:34:25;;;;;;;1.45;0.88;;;1.00;99.90;;;;;;5102793;28;20211;-73
2022/01/20 13:36:56;;;;;;;0.95;0.85;;;1.00;99.90;;;;;;5103960;28;20246;-73
2022/01/20 13:39:31;;;;;;;7.13;1.52;;;0.90;99.90;;;;;;5104991;28;20349;-74
2022/01/20 13:42:18;;;;;;;3.55;1.15;;;1.00;99.90;;;;;;5106617;28;20590;-72
2022/01/20 13:45:12;;;;;;;3.63;1.20;;;1.00;99.90;;;;;;5104955;28;20195;-74
2022/01/20 13:47:53;;;;;;;3.70;1.17;;;1.10;99.90;;;;;;5104799;28;20231;-71
2022/01/20 13:50:24;;;;;;;7.10;1.13;;;1.20;99.90;;;;;;5105538;28;20200;-73
2022/01/20 13:52:53;;;;;;;3.53;1.48;;;1.40;99.90;;;;;;5106243;28;20200;-73
2022/01/20 13:55:26;;;;;;;6.15;2.50;;;1.50;99.90;;;;;;5106426;28;20204;-73
2022/01/20 13:57:57;;;;;;;7.78;1.50;;;1.60;99.90;;;;;;5104487;28;20318;-73
2022/01/20 14:00:27;;;;;;;10.32;2.05;;;1.60;99.90;;;;;;5106019;28;20216;-72
2022/01/20 14:02:56;;;;;;;3.63;1.27;;;1.60;99.90;;;;;;5104733;28;20194;-74